sensor_id;sensor_type;location;lat;lon;timestamp;P1;durP1;ratioP1;P2;durP2;ratioP2
11006;SDS011;8186;57.652;11.968;2023-05-13T00:01:49;6.93;;;4.43;;
11006;SDS011;8186;57.652;11.968;2023-05-13T00:04:16;5.03;;;4.60;;
11006;SDS011;8186;57.652;11.968;2023-05-13T00:06:43;5.73;;;5.13;;
11006;SDS011;8186;57.652;11.968;2023-05-13T00:09:10;7.30;;;5.00;;
11006;SDS011;8186;57.652;11.968;2023-05-13T00:11:37;7.23;;;4.70;;
11006;SDS011;8186;57.652;11.968;2023-05-13T00:14:04;6.27;;;5.20;;
11006;SDS011;8186;57.652;11.968;2023-05-13T00:16:33;7.07;;;4.83;;
11006;SDS011;8186;57.652;11.968;2023-05-13T00:19:02;7.37;;;4.70;;
11006;SDS011;8186;57.652;11.968;2023-05-13T00:21:29;5.83;;;5.03;;
11006;SDS011;8186;57.652;11.968;2023-05-13T00:23:56;5.73;;;5.23;;
11006;SDS011;8186;57.652;11.968;2023-05-13T00:26:23;5.73;;;4.63;;
11006;SDS011;8186;57.652;11.968;2023-05-13T00:28:50;5.30;;;4.80;;
11006;SDS011;8186;57.652;11.968;2023-05-13T00:31:17;6.00;;;4.93;;
11006;SDS011;8186;57.652;11.968;2023-05-13T00:33:44;7.87;;;4.37;;
11006;SDS011;8186;57.652;11.968;2023-05-13T00:36:12;7.37;;;4.73;;
11006;SDS011;8186;57.652;11.968;2023-05-13T00:38:39;5.50;;;4.87;;
11006;SDS011;8186;57.652;11.968;2023-05-13T00:41:08;5.37;;;4.97;;
11006;SDS011;8186;57.652;11.968;2023-05-13T00:43:35;5.67;;;4.77;;
11006;SDS011;8186;57.652;11.968;2023-05-13T00:46:02;5.00;;;4.40;;
11006;SDS011;8186;57.652;11.968;2023-05-13T00:48:29;5.60;;;4.53;;
11006;SDS011;8186;57.652;11.968;2023-05-13T00:50:56;5.30;;;4.80;;
11006;SDS011;8186;57.652;11.968;2023-05-13T00:53:24;7.37;;;4.80;;
11006;SDS011;8186;57.652;11.968;2023-05-13T00:55:51;8.13;;;5.20;;
11006;SDS011;8186;57.652;11.968;2023-05-13T00:58:18;5.73;;;5.07;;
11006;SDS011;8186;57.652;11.968;2023-05-13T01:00:47;8.50;;;5.10;;
11006;SDS011;8186;57.652;11.968;2023-05-13T01:03:31;5.77;;;4.53;;
11006;SDS011;8186;57.652;11.968;2023-05-13T01:06:03;4.63;;;4.23;;
11006;SDS011;8186;57.652;11.968;2023-05-13T01:08:36;5.07;;;4.57;;
11006;SDS011;8186;57.652;11.968;2023-05-13T01:11:11;5.60;;;4.90;;
11006;SDS011;8186;57.652;11.968;2023-05-13T01:13:41;6.67;;;4.83;;
11006;SDS011;8186;57.652;11.968;2023-05-13T01:16:11;5.73;;;4.40;;
11006;SDS011;8186;57.652;11.968;2023-05-13T01:18:42;5.70;;;4.50;;
11006;SDS011;8186;57.652;11.968;2023-05-13T01:21:11;7.67;;;5.20;;
11006;SDS011;8186;57.652;11.968;2023-05-13T01:23:40;6.80;;;4.73;;
11006;SDS011;8186;57.652;11.968;2023-05-13T01:26:07;5.43;;;4.50;;
11006;SDS011;8186;57.652;11.968;2023-05-13T01:28:34;5.30;;;4.80;;
11006;SDS011;8186;57.652;11.968;2023-05-13T01:31:00;5.03;;;4.30;;
11006;SDS011;8186;57.652;11.968;2023-05-13T01:33:29;5.63;;;4.70;;
11006;SDS011;8186;57.652;11.968;2023-05-13T01:35:56;9.27;;;5.30;;
11006;SDS011;8186;57.652;11.968;2023-05-13T01:38:24;8.63;;;5.30;;
11006;SDS011;8186;57.652;11.968;2023-05-13T01:40:53;7.60;;;5.33;;
11006;SDS011;8186;57.652;11.968;2023-05-13T01:43:21;8.53;;;5.60;;
11006;SDS011;8186;57.652;11.968;2023-05-13T01:45:48;6.63;;;5.23;;
11006;SDS011;8186;57.652;11.968;2023-05-13T01:48:15;6.13;;;5.10;;
11006;SDS011;8186;57.652;11.968;2023-05-13T01:50:44;8.23;;;5.70;;
11006;SDS011;8186;57.652;11.968;2023-05-13T01:53:11;8.47;;;5.27;;
11006;SDS011;8186;57.652;11.968;2023-05-13T01:55:38;7.47;;;4.83;;
11006;SDS011;8186;57.652;11.968;2023-05-13T01:58:06;7.27;;;5.40;;
11006;SDS011;8186;57.652;11.968;2023-05-13T02:00:33;9.33;;;5.10;;
11006;SDS011;8186;57.652;11.968;2023-05-13T02:03:00;5.30;;;4.80;;
11006;SDS011;8186;57.652;11.968;2023-05-13T02:05:27;6.37;;;5.43;;
11006;SDS011;8186;57.652;11.968;2023-05-13T02:07:55;5.20;;;4.70;;
11006;SDS011;8186;57.652;11.968;2023-05-13T02:10:22;5.63;;;4.80;;
11006;SDS011;8186;57.652;11.968;2023-05-13T02:12:49;5.60;;;5.10;;
11006;SDS011;8186;57.652;11.968;2023-05-13T02:15:17;5.57;;;4.90;;
11006;SDS011;8186;57.652;11.968;2023-05-13T02:17:44;6.73;;;4.13;;
11006;SDS011;8186;57.652;11.968;2023-05-13T02:20:12;7.07;;;5.00;;
11006;SDS011;8186;57.652;11.968;2023-05-13T02:22:39;5.23;;;4.73;;
11006;SDS011;8186;57.652;11.968;2023-05-13T02:25:07;7.60;;;4.90;;
11006;SDS011;8186;57.652;11.968;2023-05-13T02:27:34;5.07;;;4.57;;
11006;SDS011;8186;57.652;11.968;2023-05-13T02:30:01;4.73;;;4.33;;
11006;SDS011;8186;57.652;11.968;2023-05-13T02:32:30;6.77;;;5.00;;
11006;SDS011;8186;57.652;11.968;2023-05-13T02:34:56;5.20;;;4.70;;
11006;SDS011;8186;57.652;11.968;2023-05-13T02:37:23;7.83;;;5.30;;
11006;SDS011;8186;57.652;11.968;2023-05-13T02:39:50;5.93;;;5.20;;
11006;SDS011;8186;57.652;11.968;2023-05-13T02:42:17;5.07;;;4.60;;
11006;SDS011;8186;57.652;11.968;2023-05-13T02:44:45;6.53;;;5.20;;
11006;SDS011;8186;57.652;11.968;2023-05-13T02:47:12;6.97;;;5.00;;
11006;SDS011;8186;57.652;11.968;2023-05-13T02:49:40;5.57;;;4.83;;
11006;SDS011;8186;57.652;11.968;2023-05-13T02:52:08;6.80;;;5.50;;
11006;SDS011;8186;57.652;11.968;2023-05-13T02:54:35;5.73;;;4.87;;
11006;SDS011;8186;57.652;11.968;2023-05-13T02:57:02;6.37;;;5.60;;
11006;SDS011;8186;57.652;11.968;2023-05-13T02:59:29;8.40;;;5.10;;
11006;SDS011;8186;57.652;11.968;2023-05-13T03:01:56;8.30;;;5.70;;
11006;SDS011;8186;57.652;11.968;2023-05-13T03:04:23;6.70;;;4.83;;
11006;SDS011;8186;57.652;11.968;2023-05-13T03:06:51;9.27;;;5.33;;
11006;SDS011;8186;57.652;11.968;2023-05-13T03:09:18;7.10;;;5.00;;
11006;SDS011;8186;57.652;11.968;2023-05-13T03:11:45;5.60;;;5.10;;
11006;SDS011;8186;57.652;11.968;2023-05-13T03:14:12;5.67;;;5.07;;
11006;SDS011;8186;57.652;11.968;2023-05-13T03:16:39;6.30;;;4.77;;
11006;SDS011;8186;57.652;11.968;2023-05-13T03:19:06;5.23;;;4.70;;
11006;SDS011;8186;57.652;11.968;2023-05-13T03:21:33;8.40;;;5.10;;
11006;SDS011;8186;57.652;11.968;2023-05-13T03:24:02;6.53;;;4.77;;
11006;SDS011;8186;57.652;11.968;2023-05-13T03:26:29;6.17;;;5.07;;
11006;SDS011;8186;57.652;11.968;2023-05-13T03:28:56;5.27;;;4.77;;
11006;SDS011;8186;57.652;11.968;2023-05-13T03:31:23;6.20;;;4.90;;
11006;SDS011;8186;57.652;11.968;2023-05-13T03:33:50;5.90;;;5.00;;
11006;SDS011;8186;57.652;11.968;2023-05-13T03:36:17;5.00;;;4.50;;
11006;SDS011;8186;57.652;11.968;2023-05-13T03:38:43;5.60;;;4.97;;
11006;SDS011;8186;57.652;11.968;2023-05-13T03:41:12;5.20;;;4.70;;
11006;SDS011;8186;57.652;11.968;2023-05-13T03:43:41;6.80;;;5.23;;
11006;SDS011;8186;57.652;11.968;2023-05-13T03:46:08;5.33;;;4.83;;
11006;SDS011;8186;57.652;11.968;2023-05-13T03:48:35;5.40;;;4.90;;
11006;SDS011;8186;57.652;11.968;2023-05-13T03:51:02;8.00;;;4.80;;
11006;SDS011;8186;57.652;11.968;2023-05-13T03:53:30;6.77;;;4.80;;
11006;SDS011;8186;57.652;11.968;2023-05-13T03:55:56;4.80;;;4.40;;
11006;SDS011;8186;57.652;11.968;2023-05-13T03:58:25;5.47;;;4.77;;
11006;SDS011;8186;57.652;11.968;2023-05-13T04:00:52;6.27;;;4.60;;
11006;SDS011;8186;57.652;11.968;2023-05-13T04:03:19;5.83;;;5.23;;
11006;SDS011;8186;57.652;11.968;2023-05-13T04:05:46;5.17;;;4.67;;
11006;SDS011;8186;57.652;11.968;2023-05-13T04:08:13;6.83;;;4.87;;
11006;SDS011;8186;57.652;11.968;2023-05-13T04:10:40;7.83;;;4.80;;
11006;SDS011;8186;57.652;11.968;2023-05-13T04:13:07;9.67;;;5.37;;
11006;SDS011;8186;57.652;11.968;2023-05-13T04:15:35;5.73;;;4.33;;
11006;SDS011;8186;57.652;11.968;2023-05-13T04:18:02;5.80;;;4.67;;
11006;SDS011;8186;57.652;11.968;2023-05-13T04:20:29;5.50;;;4.97;;
11006;SDS011;8186;57.652;11.968;2023-05-13T04:22:56;6.87;;;4.97;;
11006;SDS011;8186;57.652;11.968;2023-05-13T04:25:23;7.00;;;5.10;;
11006;SDS011;8186;57.652;11.968;2023-05-13T04:27:50;6.40;;;4.67;;
11006;SDS011;8186;57.652;11.968;2023-05-13T04:30:17;7.03;;;4.63;;
11006;SDS011;8186;57.652;11.968;2023-05-13T04:32:46;5.77;;;4.53;;
11006;SDS011;8186;57.652;11.968;2023-05-13T04:35:13;5.43;;;4.93;;
11006;SDS011;8186;57.652;11.968;2023-05-13T04:37:40;6.57;;;4.27;;
11006;SDS011;8186;57.652;11.968;2023-05-13T04:40:07;7.33;;;4.23;;
11006;SDS011;8186;57.652;11.968;2023-05-13T04:42:35;6.93;;;4.50;;
11006;SDS011;8186;57.652;11.968;2023-05-13T04:45:02;5.17;;;4.27;;
11006;SDS011;8186;57.652;11.968;2023-05-13T04:47:29;4.23;;;3.83;;
11006;SDS011;8186;57.652;11.968;2023-05-13T04:50:00;5.03;;;4.00;;
11006;SDS011;8186;57.652;11.968;2023-05-13T04:52:27;6.70;;;4.60;;
11006;SDS011;8186;57.652;11.968;2023-05-13T04:54:54;6.40;;;4.30;;
11006;SDS011;8186;57.652;11.968;2023-05-13T04:57:21;4.80;;;4.30;;
11006;SDS011;8186;57.652;11.968;2023-05-13T04:59:48;9.23;;;5.13;;
11006;SDS011;8186;57.652;11.968;2023-05-13T05:02:15;4.77;;;4.30;;
11006;SDS011;8186;57.652;11.968;2023-05-13T05:04:43;5.77;;;4.10;;
11006;SDS011;8186;57.652;11.968;2023-05-13T05:07:11;5.23;;;4.03;;
11006;SDS011;8186;57.652;11.968;2023-05-13T05:09:38;5.47;;;4.20;;
11006;SDS011;8186;57.652;11.968;2023-05-13T05:12:06;5.40;;;4.13;;
11006;SDS011;8186;57.652;11.968;2023-05-13T05:14:33;5.60;;;4.23;;
11006;SDS011;8186;57.652;11.968;2023-05-13T05:17:00;8.83;;;4.23;;
11006;SDS011;8186;57.652;11.968;2023-05-13T05:19:27;5.67;;;3.73;;
11006;SDS011;8186;57.652;11.968;2023-05-13T05:21:54;4.57;;;3.70;;
11006;SDS011;8186;57.652;11.968;2023-05-13T05:24:23;4.73;;;4.13;;
11006;SDS011;8186;57.652;11.968;2023-05-13T05:26:50;5.37;;;4.03;;
11006;SDS011;8186;57.652;11.968;2023-05-13T05:29:17;7.10;;;3.83;;
11006;SDS011;8186;57.652;11.968;2023-05-13T05:31:44;4.73;;;4.13;;
11006;SDS011;8186;57.652;11.968;2023-05-13T05:34:11;5.30;;;4.00;;
11006;SDS011;8186;57.652;11.968;2023-05-13T05:36:38;4.33;;;3.93;;
11006;SDS011;8186;57.652;11.968;2023-05-13T05:39:05;6.33;;;3.90;;
11006;SDS011;8186;57.652;11.968;2023-05-13T05:41:34;6.07;;;3.70;;
11006;SDS011;8186;57.652;11.968;2023-05-13T05:44:00;5.20;;;4.50;;
11006;SDS011;8186;57.652;11.968;2023-05-13T05:46:27;8.97;;;4.27;;
11006;SDS011;8186;57.652;11.968;2023-05-13T05:48:54;4.67;;;4.23;;
11006;SDS011;8186;57.652;11.968;2023-05-13T05:51:21;4.87;;;3.87;;
11006;SDS011;8186;57.652;11.968;2023-05-13T05:53:48;7.00;;;4.30;;
11006;SDS011;8186;57.652;11.968;2023-05-13T05:56:15;4.77;;;3.90;;
11006;SDS011;8186;57.652;11.968;2023-05-13T05:58:43;6.50;;;3.83;;
11006;SDS011;8186;57.652;11.968;2023-05-13T06:01:11;5.77;;;3.77;;
11006;SDS011;8186;57.652;11.968;2023-05-13T06:03:38;5.90;;;4.10;;
11006;SDS011;8186;57.652;11.968;2023-05-13T06:06:04;7.20;;;4.20;;
11006;SDS011;8186;57.652;11.968;2023-05-13T06:08:32;6.13;;;4.13;;
11006;SDS011;8186;57.652;11.968;2023-05-13T06:10:58;6.17;;;4.10;;
11006;SDS011;8186;57.652;11.968;2023-05-13T06:13:26;4.43;;;3.80;;
11006;SDS011;8186;57.652;11.968;2023-05-13T06:15:54;5.90;;;4.00;;
11006;SDS011;8186;57.652;11.968;2023-05-13T06:18:21;6.70;;;3.60;;
11006;SDS011;8186;57.652;11.968;2023-05-13T06:20:48;7.33;;;4.13;;
11006;SDS011;8186;57.652;11.968;2023-05-13T06:23:15;7.67;;;3.80;;
11006;SDS011;8186;57.652;11.968;2023-05-13T06:25:41;5.00;;;4.23;;
11006;SDS011;8186;57.652;11.968;2023-05-13T06:28:09;3.70;;;3.40;;
11006;SDS011;8186;57.652;11.968;2023-05-13T06:30:36;13.47;;;4.27;;
11006;SDS011;8186;57.652;11.968;2023-05-13T06:33:04;3.90;;;3.60;;
11006;SDS011;8186;57.652;11.968;2023-05-13T06:35:34;6.23;;;3.77;;
11006;SDS011;8186;57.652;11.968;2023-05-13T06:38:01;6.10;;;3.73;;
11006;SDS011;8186;57.652;11.968;2023-05-13T06:40:28;6.97;;;3.73;;
11006;SDS011;8186;57.652;11.968;2023-05-13T06:42:55;5.37;;;3.70;;
11006;SDS011;8186;57.652;11.968;2023-05-13T06:45:22;5.57;;;3.90;;
11006;SDS011;8186;57.652;11.968;2023-05-13T06:47:50;5.90;;;3.63;;
11006;SDS011;8186;57.652;11.968;2023-05-13T06:50:18;5.37;;;3.60;;
11006;SDS011;8186;57.652;11.968;2023-05-13T06:52:46;4.97;;;3.43;;
11006;SDS011;8186;57.652;11.968;2023-05-13T06:55:13;5.97;;;3.43;;
11006;SDS011;8186;57.652;11.968;2023-05-13T06:57:40;3.40;;;2.87;;
11006;SDS011;8186;57.652;11.968;2023-05-13T07:00:11;3.27;;;2.90;;
11006;SDS011;8186;57.652;11.968;2023-05-13T07:02:38;3.87;;;2.67;;
11006;SDS011;8186;57.652;11.968;2023-05-13T07:05:06;7.60;;;3.30;;
11006;SDS011;8186;57.652;11.968;2023-05-13T07:07:35;3.80;;;2.47;;
11006;SDS011;8186;57.652;11.968;2023-05-13T07:10:02;2.67;;;2.47;;
11006;SDS011;8186;57.652;11.968;2023-05-13T07:12:29;6.80;;;3.03;;
11006;SDS011;8186;57.652;11.968;2023-05-13T07:14:56;4.43;;;2.60;;
11006;SDS011;8186;57.652;11.968;2023-05-13T07:17:23;3.17;;;2.57;;
11006;SDS011;8186;57.652;11.968;2023-05-13T07:19:50;3.40;;;2.37;;
11006;SDS011;8186;57.652;11.968;2023-05-13T07:22:17;3.60;;;2.70;;
11006;SDS011;8186;57.652;11.968;2023-05-13T07:24:45;4.57;;;2.90;;
11006;SDS011;8186;57.652;11.968;2023-05-13T07:27:12;4.93;;;2.83;;
11006;SDS011;8186;57.652;11.968;2023-05-13T07:29:39;3.77;;;2.63;;
11006;SDS011;8186;57.652;11.968;2023-05-13T07:32:07;4.23;;;2.93;;
11006;SDS011;8186;57.652;11.968;2023-05-13T07:34:34;3.40;;;3.10;;
11006;SDS011;8186;57.652;11.968;2023-05-13T07:37:02;7.37;;;2.70;;
11006;SDS011;8186;57.652;11.968;2023-05-13T07:39:29;5.20;;;3.25;;
11006;SDS011;8186;57.652;11.968;2023-05-13T07:41:58;6.40;;;3.00;;
11006;SDS011;8186;57.652;11.968;2023-05-13T07:44:25;5.87;;;2.80;;
11006;SDS011;8186;57.652;11.968;2023-05-13T07:46:51;6.53;;;2.80;;
11006;SDS011;8186;57.652;11.968;2023-05-13T07:49:19;6.80;;;2.80;;
11006;SDS011;8186;57.652;11.968;2023-05-13T07:51:46;3.00;;;2.50;;
11006;SDS011;8186;57.652;11.968;2023-05-13T07:54:13;5.60;;;2.97;;
11006;SDS011;8186;57.652;11.968;2023-05-13T07:56:40;3.50;;;2.78;;
11006;SDS011;8186;57.652;11.968;2023-05-13T07:59:09;5.83;;;2.80;;
11006;SDS011;8186;57.652;11.968;2023-05-13T08:01:36;7.00;;;2.63;;
11006;SDS011;8186;57.652;11.968;2023-05-13T08:04:03;3.93;;;2.40;;
11006;SDS011;8186;57.652;11.968;2023-05-13T08:06:31;3.07;;;2.50;;
11006;SDS011;8186;57.652;11.968;2023-05-13T08:08:58;3.78;;;2.55;;
11006;SDS011;8186;57.652;11.968;2023-05-13T08:11:26;7.13;;;3.20;;
11006;SDS011;8186;57.652;11.968;2023-05-13T08:13:53;5.13;;;2.42;;
11006;SDS011;8186;57.652;11.968;2023-05-13T08:16:21;2.70;;;2.43;;
11006;SDS011;8186;57.652;11.968;2023-05-13T08:18:48;5.03;;;2.75;;
11006;SDS011;8186;57.652;11.968;2023-05-13T08:21:15;3.13;;;2.40;;
11006;SDS011;8186;57.652;11.968;2023-05-13T08:23:42;4.07;;;2.88;;
11006;SDS011;8186;57.652;11.968;2023-05-13T08:26:10;3.40;;;2.60;;
11006;SDS011;8186;57.652;11.968;2023-05-13T08:28:37;5.90;;;2.30;;
11006;SDS011;8186;57.652;11.968;2023-05-13T08:31:04;7.63;;;2.67;;
11006;SDS011;8186;57.652;11.968;2023-05-13T08:33:32;5.05;;;2.53;;
11006;SDS011;8186;57.652;11.968;2023-05-13T08:36:00;4.45;;;2.70;;
11006;SDS011;8186;57.652;11.968;2023-05-13T08:38:26;4.78;;;2.80;;
11006;SDS011;8186;57.652;11.968;2023-05-13T08:40:53;4.82;;;2.88;;
11006;SDS011;8186;57.652;11.968;2023-05-13T08:43:22;10.63;;;2.95;;
11006;SDS011;8186;57.652;11.968;2023-05-13T08:45:49;7.38;;;2.58;;
11006;SDS011;8186;57.652;11.968;2023-05-13T08:48:17;6.18;;;2.75;;
11006;SDS011;8186;57.652;11.968;2023-05-13T08:50:46;3.70;;;2.58;;
11006;SDS011;8186;57.652;11.968;2023-05-13T08:53:14;5.53;;;2.50;;
11006;SDS011;8186;57.652;11.968;2023-05-13T08:55:42;4.40;;;2.10;;
11006;SDS011;8186;57.652;11.968;2023-05-13T08:58:09;3.47;;;2.63;;
11006;SDS011;8186;57.652;11.968;2023-05-13T09:00:36;3.03;;;2.53;;
11006;SDS011;8186;57.652;11.968;2023-05-13T09:03:03;4.68;;;2.50;;
11006;SDS011;8186;57.652;11.968;2023-05-13T09:05:31;5.97;;;2.50;;
11006;SDS011;8186;57.652;11.968;2023-05-13T09:07:59;3.13;;;2.65;;
11006;SDS011;8186;57.652;11.968;2023-05-13T09:10:32;2.75;;;2.40;;
11006;SDS011;8186;57.652;11.968;2023-05-13T09:12:58;4.63;;;2.55;;
11006;SDS011;8186;57.652;11.968;2023-05-13T09:15:26;3.70;;;2.65;;
11006;SDS011;8186;57.652;11.968;2023-05-13T09:17:54;5.23;;;3.20;;
11006;SDS011;8186;57.652;11.968;2023-05-13T09:20:21;3.33;;;2.75;;
11006;SDS011;8186;57.652;11.968;2023-05-13T09:22:50;6.20;;;2.92;;
11006;SDS011;8186;57.652;11.968;2023-05-13T09:25:19;4.10;;;2.65;;
11006;SDS011;8186;57.652;11.968;2023-05-13T09:27:50;6.03;;;3.17;;
11006;SDS011;8186;57.652;11.968;2023-05-13T09:30:18;4.88;;;2.60;;
11006;SDS011;8186;57.652;11.968;2023-05-13T09:33:02;3.47;;;2.60;;
11006;SDS011;8186;57.652;11.968;2023-05-13T09:35:31;3.97;;;2.70;;
11006;SDS011;8186;57.652;11.968;2023-05-13T09:37:58;4.85;;;2.65;;
11006;SDS011;8186;57.652;11.968;2023-05-13T09:40:28;4.63;;;2.90;;
11006;SDS011;8186;57.652;11.968;2023-05-13T09:42:55;6.07;;;3.03;;
11006;SDS011;8186;57.652;11.968;2023-05-13T09:45:24;4.57;;;2.80;;
11006;SDS011;8186;57.652;11.968;2023-05-13T09:47:51;4.05;;;3.00;;
11006;SDS011;8186;57.652;11.968;2023-05-13T09:50:19;3.42;;;2.63;;
11006;SDS011;8186;57.652;11.968;2023-05-13T09:52:46;4.88;;;2.97;;
11006;SDS011;8186;57.652;11.968;2023-05-13T09:55:12;8.98;;;3.15;;
11006;SDS011;8186;57.652;11.968;2023-05-13T09:57:41;4.72;;;2.75;;
11006;SDS011;8186;57.652;11.968;2023-05-13T10:00:08;4.85;;;2.72;;
11006;SDS011;8186;57.652;11.968;2023-05-13T10:02:36;3.08;;;2.65;;
11006;SDS011;8186;57.652;11.968;2023-05-13T10:05:04;3.70;;;2.72;;
11006;SDS011;8186;57.652;11.968;2023-05-13T10:07:32;4.78;;;2.80;;
11006;SDS011;8186;57.652;11.968;2023-05-13T10:10:00;5.75;;;2.38;;
11006;SDS011;8186;57.652;11.968;2023-05-13T10:12:29;4.20;;;2.63;;
11006;SDS011;8186;57.652;11.968;2023-05-13T10:14:58;4.43;;;2.60;;
11006;SDS011;8186;57.652;11.968;2023-05-13T10:17:26;8.05;;;2.63;;
11006;SDS011;8186;57.652;11.968;2023-05-13T10:19:55;4.57;;;2.67;;
11006;SDS011;8186;57.652;11.968;2023-05-13T10:22:24;3.03;;;2.67;;
11006;SDS011;8186;57.652;11.968;2023-05-13T10:24:54;5.50;;;2.53;;
11006;SDS011;8186;57.652;11.968;2023-05-13T10:27:23;5.07;;;2.63;;
11006;SDS011;8186;57.652;11.968;2023-05-13T10:29:53;4.93;;;2.72;;
11006;SDS011;8186;57.652;11.968;2023-05-13T10:32:22;5.65;;;2.42;;
11006;SDS011;8186;57.652;11.968;2023-05-13T10:34:50;3.17;;;2.70;;
11006;SDS011;8186;57.652;11.968;2023-05-13T10:37:35;5.40;;;2.97;;
11006;SDS011;8186;57.652;11.968;2023-05-13T10:40:23;3.85;;;2.75;;
11006;SDS011;8186;57.652;11.968;2023-05-13T10:43:10;3.30;;;2.65;;
11006;SDS011;8186;57.652;11.968;2023-05-13T10:45:43;2.50;;;2.30;;
11006;SDS011;8186;57.652;11.968;2023-05-13T10:48:12;6.30;;;2.63;;
11006;SDS011;8186;57.652;11.968;2023-05-13T10:50:45;3.42;;;2.40;;
11006;SDS011;8186;57.652;11.968;2023-05-13T10:53:18;3.17;;;2.45;;
11006;SDS011;8186;57.652;11.968;2023-05-13T10:55:50;4.15;;;2.92;;
11006;SDS011;8186;57.652;11.968;2023-05-13T10:58:18;4.32;;;2.80;;
11006;SDS011;8186;57.652;11.968;2023-05-13T11:00:46;8.60;;;2.80;;
11006;SDS011;8186;57.652;11.968;2023-05-13T11:03:25;4.60;;;2.60;;
11006;SDS011;8186;57.652;11.968;2023-05-13T11:05:57;6.07;;;2.40;;
11006;SDS011;8186;57.652;11.968;2023-05-13T11:08:40;3.25;;;2.70;;
11006;SDS011;8186;57.652;11.968;2023-05-13T11:11:24;4.95;;;2.35;;
11006;SDS011;8186;57.652;11.968;2023-05-13T11:13:53;5.97;;;3.10;;
11006;SDS011;8186;57.652;11.968;2023-05-13T11:16:21;4.40;;;2.78;;
11006;SDS011;8186;57.652;11.968;2023-05-13T11:18:49;3.13;;;2.65;;
11006;SDS011;8186;57.652;11.968;2023-05-13T11:21:17;5.82;;;2.50;;
11006;SDS011;8186;57.652;11.968;2023-05-13T11:23:55;4.60;;;2.90;;
11006;SDS011;8186;57.652;11.968;2023-05-13T11:26:23;7.05;;;3.13;;
11006;SDS011;8186;57.652;11.968;2023-05-13T11:29:00;3.53;;;2.75;;
11006;SDS011;8186;57.652;11.968;2023-05-13T11:31:40;5.32;;;2.70;;
11006;SDS011;8186;57.652;11.968;2023-05-13T11:34:10;5.90;;;2.58;;
11006;SDS011;8186;57.652;11.968;2023-05-13T11:36:39;2.60;;;2.40;;
11006;SDS011;8186;57.652;11.968;2023-05-13T11:39:08;6.68;;;2.60;;
11006;SDS011;8186;57.652;11.968;2023-05-13T11:41:39;4.15;;;2.42;;
11006;SDS011;8186;57.652;11.968;2023-05-13T11:44:07;3.35;;;2.25;;
11006;SDS011;8186;57.652;11.968;2023-05-13T11:46:34;3.63;;;2.30;;
11006;SDS011;8186;57.652;11.968;2023-05-13T11:49:01;3.30;;;2.10;;
11006;SDS011;8186;57.652;11.968;2023-05-13T11:51:30;3.40;;;2.40;;
11006;SDS011;8186;57.652;11.968;2023-05-13T11:54:00;4.00;;;2.70;;
11006;SDS011;8186;57.652;11.968;2023-05-13T11:56:27;2.83;;;2.08;;
11006;SDS011;8186;57.652;11.968;2023-05-13T11:58:54;6.55;;;2.85;;
11006;SDS011;8186;57.652;11.968;2023-05-13T12:01:22;3.42;;;2.17;;
11006;SDS011;8186;57.652;11.968;2023-05-13T12:03:49;3.85;;;2.72;;
11006;SDS011;8186;57.652;11.968;2023-05-13T12:06:16;3.92;;;2.50;;
11006;SDS011;8186;57.652;11.968;2023-05-13T12:08:45;4.93;;;2.10;;
11006;SDS011;8186;57.652;11.968;2023-05-13T12:11:12;4.47;;;2.67;;
11006;SDS011;8186;57.652;11.968;2023-05-13T12:13:39;2.85;;;2.58;;
11006;SDS011;8186;57.652;11.968;2023-05-13T12:16:07;5.97;;;2.88;;
11006;SDS011;8186;57.652;11.968;2023-05-13T12:18:35;4.93;;;2.65;;
11006;SDS011;8186;57.652;11.968;2023-05-13T12:21:12;4.03;;;2.17;;
11006;SDS011;8186;57.652;11.968;2023-05-13T12:23:41;3.15;;;2.38;;
11006;SDS011;8186;57.652;11.968;2023-05-13T12:26:10;5.18;;;2.65;;
11006;SDS011;8186;57.652;11.968;2023-05-13T12:28:37;4.47;;;2.50;;
11006;SDS011;8186;57.652;11.968;2023-05-13T12:31:04;4.28;;;2.72;;
11006;SDS011;8186;57.652;11.968;2023-05-13T12:33:31;5.43;;;2.30;;
11006;SDS011;8186;57.652;11.968;2023-05-13T12:36:15;5.18;;;2.25;;
11006;SDS011;8186;57.652;11.968;2023-05-13T12:38:53;4.95;;;2.70;;
11006;SDS011;8186;57.652;11.968;2023-05-13T12:41:23;5.32;;;2.60;;
11006;SDS011;8186;57.652;11.968;2023-05-13T12:43:54;2.95;;;2.58;;
11006;SDS011;8186;57.652;11.968;2023-05-13T12:46:22;5.10;;;2.60;;
11006;SDS011;8186;57.652;11.968;2023-05-13T12:48:51;4.53;;;2.90;;
11006;SDS011;8186;57.652;11.968;2023-05-13T12:51:20;3.83;;;2.60;;
11006;SDS011;8186;57.652;11.968;2023-05-13T12:53:47;4.97;;;2.42;;
11006;SDS011;8186;57.652;11.968;2023-05-13T12:56:13;3.60;;;2.83;;
11006;SDS011;8186;57.652;11.968;2023-05-13T12:58:42;4.45;;;2.65;;
11006;SDS011;8186;57.652;11.968;2023-05-13T13:01:09;3.03;;;2.72;;
11006;SDS011;8186;57.652;11.968;2023-05-13T13:03:36;4.40;;;2.42;;
11006;SDS011;8186;57.652;11.968;2023-05-13T13:06:03;3.20;;;2.90;;
11006;SDS011;8186;57.652;11.968;2023-05-13T13:08:30;7.00;;;2.42;;
11006;SDS011;8186;57.652;11.968;2023-05-13T13:10:57;6.43;;;2.70;;
11006;SDS011;8186;57.652;11.968;2023-05-13T13:13:25;3.50;;;2.33;;
11006;SDS011;8186;57.652;11.968;2023-05-13T13:15:53;4.57;;;2.45;;
11006;SDS011;8186;57.652;11.968;2023-05-13T13:18:20;5.05;;;2.70;;
11006;SDS011;8186;57.652;11.968;2023-05-13T13:20:48;2.92;;;2.70;;
11006;SDS011;8186;57.652;11.968;2023-05-13T13:23:15;7.38;;;3.03;;
11006;SDS011;8186;57.652;11.968;2023-05-13T13:25:42;3.75;;;2.72;;
11006;SDS011;8186;57.652;11.968;2023-05-13T13:28:09;4.63;;;2.60;;
11006;SDS011;8186;57.652;11.968;2023-05-13T13:30:36;6.10;;;2.60;;
11006;SDS011;8186;57.652;11.968;2023-05-13T13:33:05;4.95;;;2.60;;
11006;SDS011;8186;57.652;11.968;2023-05-13T13:35:31;3.17;;;2.35;;
11006;SDS011;8186;57.652;11.968;2023-05-13T13:37:58;5.22;;;2.33;;
11006;SDS011;8186;57.652;11.968;2023-05-13T13:40:25;5.30;;;2.85;;
11006;SDS011;8186;57.652;11.968;2023-05-13T13:42:52;3.35;;;2.85;;
11006;SDS011;8186;57.652;11.968;2023-05-13T13:45:19;7.13;;;2.80;;
11006;SDS011;8186;57.652;11.968;2023-05-13T13:47:48;4.47;;;2.58;;
11006;SDS011;8186;57.652;11.968;2023-05-13T13:50:16;4.63;;;2.83;;
11006;SDS011;8186;57.652;11.968;2023-05-13T13:52:43;6.00;;;2.40;;
11006;SDS011;8186;57.652;11.968;2023-05-13T13:55:10;4.03;;;2.20;;
11006;SDS011;8186;57.652;11.968;2023-05-13T13:57:39;3.67;;;2.28;;
11006;SDS011;8186;57.652;11.968;2023-05-13T14:00:06;5.45;;;2.10;;
11006;SDS011;8186;57.652;11.968;2023-05-13T14:02:34;4.25;;;3.20;;
11006;SDS011;8186;57.652;11.968;2023-05-13T14:05:01;7.72;;;3.10;;
11006;SDS011;8186;57.652;11.968;2023-05-13T14:07:29;4.38;;;2.90;;
11006;SDS011;8186;57.652;11.968;2023-05-13T14:09:56;5.30;;;2.78;;
11006;SDS011;8186;57.652;11.968;2023-05-13T14:12:23;4.22;;;3.10;;
11006;SDS011;8186;57.652;11.968;2023-05-13T14:14:51;3.83;;;2.80;;
11006;SDS011;8186;57.652;11.968;2023-05-13T14:17:18;7.85;;;3.00;;
11006;SDS011;8186;57.652;11.968;2023-05-13T14:19:45;4.32;;;2.55;;
11006;SDS011;8186;57.652;11.968;2023-05-13T14:22:15;3.35;;;2.70;;
11006;SDS011;8186;57.652;11.968;2023-05-13T14:24:44;6.88;;;2.80;;
11006;SDS011;8186;57.652;11.968;2023-05-13T14:27:11;4.70;;;2.65;;
11006;SDS011;8186;57.652;11.968;2023-05-13T14:29:38;4.25;;;2.88;;
11006;SDS011;8186;57.652;11.968;2023-05-13T14:32:05;3.80;;;2.60;;
11006;SDS011;8186;57.652;11.968;2023-05-13T14:34:32;4.60;;;2.80;;
11006;SDS011;8186;57.652;11.968;2023-05-13T14:36:59;5.38;;;2.70;;
11006;SDS011;8186;57.652;11.968;2023-05-13T14:39:26;2.85;;;2.65;;
11006;SDS011;8186;57.652;11.968;2023-05-13T14:41:55;8.10;;;3.55;;
11006;SDS011;8186;57.652;11.968;2023-05-13T14:44:22;4.55;;;2.75;;
11006;SDS011;8186;57.652;11.968;2023-05-13T14:46:49;6.57;;;3.42;;
11006;SDS011;8186;57.652;11.968;2023-05-13T14:49:16;7.90;;;3.42;;
11006;SDS011;8186;57.652;11.968;2023-05-13T14:51:43;7.95;;;3.05;;
11006;SDS011;8186;57.652;11.968;2023-05-13T14:54:10;4.43;;;2.53;;